Time;durP1;ratioP1;P1;durP2;ratioP2;P2;SDS_P1;SDS_P2;PMS_P1;PMS_P2;Temp;Humidity;BMP_temperature;BMP_pressure;BME280_temperature;BME280_humidity;BME280_pressure;Samples;Min_cycle;Max_cycle;Signal;HPM_P1;HPM_P2
2022/04/23 00:02:02;;;;;;;24.23;17.77;;;11.00;99.90;;;;;;5072325;28;20437;-70
2022/04/23 00:04:31;;;;;;;22.83;16.70;;;11.00;99.90;;;;;;5072598;28;20216;-70
2022/04/23 00:07:00;;;;;;;25.50;16.97;;;10.90;99.90;;;;;;5071054;28;20450;-70
2022/04/23 00:09:26;;;;;;;22.70;17.00;;;10.90;99.90;;;;;;5071920;28;20487;-71
2022/04/23 00:11:55;;;;;;;21.70;16.60;;;10.80;99.90;;;;;;5071325;28;20437;-70
2022/04/23 00:14:21;;;;;;;22.97;16.37;;;10.80;99.90;;;;;;5071211;28;20230;-71
2022/04/23 00:16:49;;;;;;;23.70;17.67;;;10.70;99.90;;;;;;5071605;28;21082;-70
2022/04/23 00:19:14;;;;;;;20.83;15.57;;;10.70;99.90;;;;;;5077982;28;20470;-71
2022/04/23 00:21:40;;;;;;;25.50;18.17;;;10.60;99.90;;;;;;5091552;28;20804;-71
2022/04/23 00:24:06;;;;;;;21.97;17.70;;;10.50;99.90;;;;;;5091335;28;20216;-71
2022/04/23 00:26:31;;;;;;;20.87;16.20;;;10.50;99.90;;;;;;5091737;28;20294;-71
2022/04/23 00:28:57;;;;;;;18.70;15.30;;;10.40;99.90;;;;;;5091372;28;20218;-71
2022/04/23 00:31:22;;;;;;;22.10;17.13;;;10.30;99.90;;;;;;5091500;28;20194;-71
2022/04/23 00:33:47;;;;;;;22.03;16.33;;;10.30;99.90;;;;;;5078601;28;20460;-72
2022/04/23 00:36:13;;;;;;;23.13;16.47;;;10.30;99.90;;;;;;5071172;28;20295;-72
2022/04/23 00:38:42;;;;;;;24.63;17.60;;;10.20;99.90;;;;;;5070842;28;20211;-70
2022/04/23 00:41:43;;;;;;;21.87;17.83;;;10.20;99.90;;;;;;5070549;28;20723;-70
2022/04/23 00:43:54;;;;;;;19.43;16.43;;;10.20;99.90;;;;;;5070800;28;20512;-71
2022/04/23 00:46:19;;;;;;;17.77;14.63;;;10.10;99.90;;;;;;5093616;28;20826;-71
2022/04/23 00:48:45;;;;;;;23.53;16.50;;;10.10;99.90;;;;;;5093847;28;20229;-70
2022/04/23 00:51:12;;;;;;;18.20;15.67;;;10.00;99.90;;;;;;5091138;28;20683;-70
2022/04/23 00:53:38;;;;;;;20.03;15.80;;;9.90;99.90;;;;;;5092001;28;20247;-70
2022/04/23 00:56:04;;;;;;;22.80;17.33;;;9.80;99.90;;;;;;5079581;28;20409;-71
2022/04/23 00:58:30;;;;;;;21.23;17.27;;;9.60;99.90;;;;;;5078908;28;20505;-70
2022/04/23 02:31:33;;;;;;;19.37;15.10;;;9.30;99.90;;;;;;5723804;22;20476;-73
2022/04/23 02:33:58;;;;;;;23.33;15.50;;;9.30;99.90;;;;;;5052507;28;20457;-72
2022/04/23 02:36:24;;;;;;;16.40;14.50;;;9.30;99.90;;;;;;5053784;28;20178;-72
2022/04/23 02:38:51;;;;;;;21.10;13.97;;;9.20;99.90;;;;;;5049448;28;20195;-72
2022/04/23 02:41:17;;;;;;;17.70;13.97;;;9.20;99.90;;;;;;5058015;28;20201;-72
2022/04/23 02:43:43;;;;;;;19.67;16.33;;;9.20;99.90;;;;;;5074180;28;20412;-72
2022/04/23 02:46:09;;;;;;;24.20;14.93;;;9.30;99.90;;;;;;5073872;28;20430;-71
2022/04/23 02:48:35;;;;;;;17.93;15.50;;;9.20;99.90;;;;;;5074123;28;20211;-74
2022/04/23 02:51:02;;;;;;;26.80;16.70;;;9.20;99.90;;;;;;5073447;28;20810;-72
2022/04/23 02:53:28;;;;;;;23.67;16.47;;;9.20;99.90;;;;;;5074014;28;20409;-72
2022/04/23 02:55:56;;;;;;;26.10;18.37;;;9.10;99.90;;;;;;5073930;28;20469;-71
2022/04/23 02:58:24;;;;;;;22.53;16.53;;;9.10;99.90;;;;;;5073709;28;20756;-71
2022/04/23 03:00:49;;;;;;;17.53;15.10;;;9.10;99.90;;;;;;5072637;28;21002;-73
2022/04/23 03:03:15;;;;;;;17.53;14.87;;;9.00;99.90;;;;;;5073175;28;20428;-72
2022/04/23 03:05:42;;;;;;;17.87;15.13;;;9.00;99.90;;;;;;5073875;28;20171;-72
2022/04/23 03:08:08;;;;;;;20.60;15.70;;;8.90;99.90;;;;;;5073849;28;20894;-72
2022/04/23 03:10:33;;;;;;;17.33;13.60;;;8.80;99.90;;;;;;5073178;28;20464;-71
2022/04/23 03:12:59;;;;;;;18.77;15.77;;;8.70;99.90;;;;;;5073380;28;20428;-72
2022/04/23 03:15:26;;;;;;;15.67;13.50;;;8.60;99.90;;;;;;5073717;28;20187;-72
2022/04/23 03:18:08;;;;;;;16.97;13.87;;;8.40;99.90;;;;;;5073696;28;20590;-72
2022/04/23 03:20:34;;;;;;;20.67;15.00;;;8.30;99.90;;;;;;5072974;28;20511;-69
2022/04/23 03:22:59;;;;;;;18.43;15.13;;;8.20;99.90;;;;;;5073353;28;20499;-72
2022/04/23 03:25:25;;;;;;;18.10;14.47;;;8.10;99.90;;;;;;5073081;28;20432;-72
2022/04/23 03:27:50;;;;;;;18.90;13.73;;;8.00;99.90;;;;;;5073570;28;20179;-72
2022/04/23 03:30:16;;;;;;;20.50;15.63;;;8.00;99.90;;;;;;5073022;28;20209;-72
2022/04/23 03:32:42;;;;;;;17.90;14.80;;;7.90;99.90;;;;;;5072964;28;20230;-72
2022/04/23 03:35:08;;;;;;;22.63;16.63;;;7.90;99.90;;;;;;5073033;28;20574;-73
2022/04/23 03:37:34;;;;;;;23.40;17.03;;;8.00;99.90;;;;;;5073043;28;20207;-71
2022/04/23 03:40:03;;;;;;;21.83;16.10;;;8.10;99.90;;;;;;5073152;28;20777;-72
2022/04/23 03:42:29;;;;;;;23.83;18.27;;;8.10;99.90;;;;;;5072509;28;20944;-72
2022/04/23 03:44:54;;;;;;;20.10;16.03;;;8.10;99.90;;;;;;5072836;28;20479;-72
2022/04/23 03:47:20;;;;;;;20.30;16.97;;;8.10;99.90;;;;;;5072958;28;20204;-72
2022/04/23 03:49:46;;;;;;;19.10;16.07;;;8.20;99.90;;;;;;5072969;28;20215;-72
2022/04/23 03:52:12;;;;;;;21.50;14.67;;;8.20;99.90;;;;;;5072407;28;20191;-72
2022/04/23 03:54:38;;;;;;;18.30;14.27;;;8.20;99.90;;;;;;5057028;28;20422;-73
2022/04/23 03:57:04;;;;;;;22.17;16.80;;;8.20;99.90;;;;;;5076827;28;20185;-72
2022/04/23 03:59:30;;;;;;;17.20;14.43;;;8.20;99.90;;;;;;5075148;28;20184;-73
2022/04/23 04:01:56;;;;;;;16.33;12.93;;;8.20;99.90;;;;;;5072788;28;20436;-72
2022/04/23 04:04:22;;;;;;;14.97;13.37;;;8.20;99.90;;;;;;5072238;28;20790;-73
2022/04/23 04:06:47;;;;;;;15.30;12.20;;;8.20;99.90;;;;;;5072627;28;20590;-73
2022/04/23 04:09:13;;;;;;;15.40;12.13;;;8.20;99.90;;;;;;5072317;28;20495;-72
2022/04/23 04:14:23;;;;;;;13.70;12.20;;;8.30;99.90;;;;;;5071411;28;20232;-72
2022/04/23 04:16:49;;;;;;;15.80;12.63;;;8.30;99.90;;;;;;5072245;28;20415;-72
2022/04/23 04:19:15;;;;;;;16.17;12.87;;;8.30;99.90;;;;;;5072288;28;20553;-72
2022/04/23 04:21:46;;;;;;;17.10;14.03;;;8.30;99.90;;;;;;5072141;28;20493;-71
2022/04/23 04:24:16;;;;;;;14.27;12.33;;;8.30;99.90;;;;;;5071975;28;20859;-72
2022/04/23 04:26:43;;;;;;;17.70;14.23;;;8.30;99.90;;;;;;5072011;28;20428;-72
2022/04/23 04:29:09;;;;;;;15.53;12.03;;;8.30;99.90;;;;;;5072268;28;20462;-73
2022/04/23 04:31:51;;;;;;;16.03;12.40;;;8.30;99.90;;;;;;5071607;28;20756;-71
2022/04/23 04:34:32;;;;;;;17.30;13.70;;;8.30;99.90;;;;;;5071828;28;20649;-71
2022/04/23 04:37:03;;;;;;;16.73;13.13;;;8.30;99.90;;;;;;5071826;28;20930;-72
2022/04/23 04:39:30;;;;;;;14.43;12.87;;;8.40;99.90;;;;;;5071835;28;20414;-71
2022/04/23 04:41:55;;;;;;;17.13;13.73;;;8.50;99.90;;;;;;5071942;28;20430;-71
2022/04/23 04:44:21;;;;;;;18.53;13.20;;;8.50;99.90;;;;;;5065271;28;20817;-72
2022/04/23 04:46:46;;;;;;;16.07;12.80;;;8.60;99.90;;;;;;5052078;28;20183;-71
2022/04/23 04:49:12;;;;;;;15.80;12.97;;;8.60;99.90;;;;;;5051536;28;20296;-73
2022/04/23 04:51:37;;;;;;;16.47;14.03;;;8.70;99.90;;;;;;5051587;28;20196;-73
2022/04/23 04:54:06;;;;;;;19.60;12.97;;;8.70;99.90;;;;;;5058898;28;20180;-70
2022/04/23 04:56:33;;;;;;;15.77;13.07;;;8.80;99.90;;;;;;5071317;28;20220;-72
2022/04/23 04:58:58;;;;;;;15.57;13.27;;;8.80;99.90;;;;;;5071652;28;20430;-72
2022/04/23 05:01:24;;;;;;;15.57;13.10;;;8.80;99.90;;;;;;5071196;28;20453;-72
2022/04/23 05:03:51;;;;;;;17.03;13.67;;;8.90;99.90;;;;;;5071545;28;20974;-72
2022/04/23 05:06:17;;;;;;;17.60;13.73;;;8.90;99.90;;;;;;5071387;28;20832;-72
2022/04/23 05:08:43;;;;;;;14.00;11.50;;;9.00;99.90;;;;;;5071622;28;20457;-71
2022/04/23 05:11:09;;;;;;;19.63;13.40;;;9.00;99.90;;;;;;5070849;28;20443;-72
2022/04/23 05:13:35;;;;;;;14.63;12.70;;;9.00;99.90;;;;;;5071542;28;20415;-72
2022/04/23 05:16:01;;;;;;;16.10;12.90;;;9.10;99.90;;;;;;5071578;28;20915;-72
2022/04/23 05:18:26;;;;;;;16.83;12.77;;;9.10;99.90;;;;;;5071302;28;20191;-72
2022/04/23 05:20:53;;;;;;;14.60;12.00;;;9.20;99.90;;;;;;5070734;28;20192;-71
2022/04/23 05:23:19;;;;;;;15.67;12.53;;;9.30;99.90;;;;;;5071189;28;20171;-72
2022/04/23 05:25:44;;;;;;;15.43;12.70;;;9.50;99.90;;;;;;5053262;28;20959;-72
2022/04/23 05:28:10;;;;;;;20.50;12.30;;;9.50;99.90;;;;;;5071216;28;20174;-71
2022/04/23 05:30:39;;;;;;;16.80;12.27;;;9.60;99.90;;;;;;5069604;28;20204;-69
2022/04/23 05:33:05;;;;;;;15.77;12.27;;;9.60;99.90;;;;;;5071164;28;20184;-73
2022/04/23 05:35:31;;;;;;;15.30;12.30;;;9.70;99.90;;;;;;5071150;28;20451;-72
2022/04/23 05:37:57;;;;;;;15.87;12.50;;;9.80;99.90;;;;;;5071276;28;20842;-72
2022/04/23 05:40:22;;;;;;;13.27;11.37;;;9.70;99.90;;;;;;5070778;28;20176;-72
2022/04/23 05:42:48;;;;;;;16.53;13.10;;;9.90;99.90;;;;;;5071049;28;20201;-73
2022/04/23 05:45:13;;;;;;;17.27;13.27;;;9.90;99.90;;;;;;5071049;28;20183;-72
2022/04/23 05:47:42;;;;;;;14.03;11.47;;;9.80;99.90;;;;;;5071138;28;20186;-72
2022/04/23 05:50:09;;;;;;;16.07;12.20;;;9.80;99.90;;;;;;5070862;28;20204;-71
2022/04/23 05:52:35;;;;;;;15.40;12.23;;;9.90;99.90;;;;;;5070528;28;20458;-73
2022/04/23 05:55:01;;;;;;;15.60;12.90;;;9.90;99.90;;;;;;5071091;28;20406;-73
2022/04/23 05:57:26;;;;;;;13.60;12.17;;;10.00;99.90;;;;;;5071092;28;20417;-68
2022/04/23 05:59:52;;;;;;;15.97;11.27;;;10.00;99.90;;;;;;5071177;28;20190;-72
2022/04/23 06:02:17;;;;;;;15.57;12.27;;;9.90;99.90;;;;;;5069908;28;20235;-72
2022/04/23 06:04:45;;;;;;;12.07;10.67;;;9.90;99.90;;;;;;5071182;28;20187;-71
2022/04/23 06:07:11;;;;;;;16.33;12.73;;;9.90;99.90;;;;;;5070703;28;20188;-70
2022/04/23 06:09:36;;;;;;;21.83;12.77;;;9.90;99.90;;;;;;5070892;28;20463;-72
2022/04/23 06:12:02;;;;;;;14.80;12.00;;;9.90;99.90;;;;;;5070384;28;20206;-72
2022/04/23 06:14:27;;;;;;;16.03;12.73;;;9.90;99.90;;;;;;5070854;28;20556;-72
2022/04/23 06:16:53;;;;;;;16.50;12.90;;;10.00;99.90;;;;;;5070778;28;20178;-72
2022/04/23 06:19:18;;;;;;;16.37;11.57;;;10.00;99.90;;;;;;5053041;28;20638;-72
2022/04/23 06:21:44;;;;;;;12.73;11.30;;;10.00;99.90;;;;;;5070598;28;20205;-71
2022/04/23 06:24:09;;;;;;;15.40;12.67;;;10.10;99.90;;;;;;5071086;28;20256;-71
2022/04/23 06:26:35;;;;;;;15.40;10.93;;;10.00;99.90;;;;;;5070766;28;20178;-72
2022/04/23 06:29:00;;;;;;;14.63;10.93;;;10.20;99.90;;;;;;5069024;28;20570;-71
2022/04/23 06:31:26;;;;;;;19.63;12.37;;;10.30;99.90;;;;;;5069864;28;20222;-72
2022/04/23 06:33:51;;;;;;;14.23;12.40;;;10.30;99.90;;;;;;5070597;28;20632;-72
2022/04/23 06:36:17;;;;;;;13.87;11.57;;;10.30;99.90;;;;;;5071102;28;20178;-72
2022/04/23 06:38:42;;;;;;;15.73;11.17;;;10.30;99.90;;;;;;5074189;28;20654;-71
2022/04/23 06:41:08;;;;;;;14.10;11.57;;;10.30;99.90;;;;;;5073400;28;20660;-72
2022/04/23 06:43:33;;;;;;;13.50;10.70;;;10.30;99.90;;;;;;5074141;28;20233;-72
2022/04/23 06:45:59;;;;;;;13.80;11.30;;;10.40;99.90;;;;;;5074060;28;20238;-72
2022/04/23 06:48:25;;;;;;;12.97;10.40;;;10.40;99.90;;;;;;5073983;28;20174;-72
2022/04/23 06:50:51;;;;;;;11.00;9.77;;;10.40;99.90;;;;;;5073409;28;20934;-72
2022/04/23 06:53:16;;;;;;;11.30;9.50;;;10.50;99.90;;;;;;5073965;28;20179;-72
2022/04/23 06:55:42;;;;;;;13.03;10.57;;;10.60;99.90;;;;;;5073942;28;20170;-72
2022/04/23 06:58:07;;;;;;;12.50;10.40;;;10.70;99.90;;;;;;5073910;28;20187;-72
2022/04/23 07:00:33;;;;;;;11.93;9.50;;;10.80;99.90;;;;;;5073283;28;20187;-72
2022/04/23 07:02:58;;;;;;;11.10;8.57;;;10.90;99.90;;;;;;5073772;28;20738;-72
2022/04/23 07:05:24;;;;;;;10.50;9.33;;;11.00;99.90;;;;;;5073543;28;20179;-70
2022/04/23 07:07:55;;;;;;;9.20;8.30;;;11.00;99.90;;;;;;5073576;28;20225;-73
2022/04/23 07:10:20;;;;;;;9.17;8.17;;;11.10;99.90;;;;;;5065836;28;20255;-74
2022/04/23 07:12:46;;;;;;;11.27;8.70;;;11.10;99.90;;;;;;5061363;28;20454;-72
2022/04/23 07:15:11;;;;;;;10.07;9.03;;;11.10;99.90;;;;;;5053559;28;20176;-72
2022/04/23 07:17:37;;;;;;;11.53;9.23;;;11.20;99.90;;;;;;5053410;28;20171;-72
2022/04/23 07:20:03;;;;;;;11.10;9.60;;;11.10;99.90;;;;;;5053559;28;20674;-72
2022/04/23 07:22:28;;;;;;;11.20;8.83;;;11.10;99.90;;;;;;5063224;28;20285;-73
2022/04/23 07:24:54;;;;;;;10.00;8.70;;;11.10;99.90;;;;;;5073503;28;20174;-72
2022/04/23 07:27:19;;;;;;;9.97;8.93;;;11.10;99.90;;;;;;5073245;28;20576;-71
2022/04/23 07:29:45;;;;;;;10.60;8.70;;;11.10;99.90;;;;;;5073225;28;20203;-73
2022/04/23 07:32:10;;;;;;;9.70;8.70;;;11.20;99.90;;;;;;5072396;28;20219;-71
2022/04/23 07:37:29;;;;;;;9.10;7.53;;;11.30;99.90;;;;;;5073038;28;20250;-71
2022/04/23 07:40:10;;;;;;;9.60;8.60;;;11.40;99.90;;;;;;5073145;28;20986;-71
2022/04/23 07:42:36;;;;;;;8.60;7.47;;;11.40;99.90;;;;;;5073146;28;20458;-69
2022/04/23 07:45:02;;;;;;;8.30;7.43;;;11.50;99.90;;;;;;5073431;28;20411;-72
2022/04/23 07:47:28;;;;;;;7.93;6.97;;;11.80;99.90;;;;;;5073098;28;20705;-73
2022/04/23 07:49:54;;;;;;;8.03;7.30;;;12.00;99.90;;;;;;5072902;28;20499;-71
2022/04/23 07:52:19;;;;;;;9.40;7.47;;;12.00;99.90;;;;;;5072096;28;20207;-72
2022/04/23 07:54:45;;;;;;;8.50;7.27;;;12.00;99.90;;;;;;5072973;28;20195;-73
2022/04/23 07:57:11;;;;;;;20.80;7.60;;;12.10;99.90;;;;;;5072648;28;20551;-72
2022/04/23 07:59:41;;;;;;;7.97;7.17;;;12.30;99.90;;;;;;5072697;28;20443;-72
2022/04/23 08:02:08;;;;;;;8.80;7.23;;;12.40;99.90;;;;;;5069889;28;20649;-73
2022/04/23 08:04:34;;;;;;;15.33;7.80;;;12.50;99.90;;;;;;5071469;28;20426;-73
2022/04/23 08:06:59;;;;;;;9.80;7.90;;;12.60;99.90;;;;;;5070590;28;20446;-74
2022/04/23 08:09:25;;;;;;;7.27;6.57;;;12.80;99.90;;;;;;5071225;28;20235;-71
2022/04/23 08:11:50;;;;;;;7.60;6.87;;;13.00;99.90;;;;;;5070460;28;20249;-71
2022/04/23 08:14:16;;;;;;;9.90;7.03;;;13.10;99.90;;;;;;5069373;28;20172;-72
2022/04/23 08:16:42;;;;;;;7.33;6.50;;;13.20;99.90;;;;;;5072090;28;20652;-73
2022/04/23 08:19:08;;;;;;;7.93;6.80;;;13.30;99.90;;;;;;5072052;28;20300;-71
2022/04/23 08:21:34;;;;;;;7.87;6.10;;;13.50;99.90;;;;;;5071590;28;20854;-73
2022/04/23 08:24:00;;;;;;;7.77;6.83;;;13.40;99.90;;;;;;5072812;28;20487;-72
2022/04/23 08:26:26;;;;;;;10.33;6.83;;;13.30;99.90;;;;;;5067210;28;20527;-72
2022/04/23 08:31:35;;;;;;;7.87;7.07;;;13.20;99.90;;;;;;5062389;28;20219;-72
2022/04/23 08:34:01;;;;;;;7.20;6.50;;;13.10;99.90;;;;;;5061178;28;20419;-72
2022/04/23 08:36:33;;;;;;;9.20;7.40;;;12.90;99.90;;;;;;5062784;28;20520;-72
2022/04/23 08:38:59;;;;;;;6.87;6.17;;;12.90;99.90;;;;;;5061430;28;20860;-71
2022/04/23 08:41:29;;;;;;;10.00;7.20;;;13.10;99.90;;;;;;5060956;28;20431;-72
2022/04/23 08:44:03;;;;;;;8.67;7.47;;;13.10;99.90;;;;;;5060418;28;20260;-72
2022/04/23 08:46:30;;;;;;;8.40;7.50;;;13.20;99.90;;;;;;5063229;28;20443;-72
2022/04/23 08:49:06;;;;;;;7.70;6.73;;;13.30;99.90;;;;;;5060474;28;20951;-72
2022/04/23 08:51:34;;;;;;;8.50;7.53;;;13.40;99.90;;;;;;5060097;28;20470;-71
2022/04/23 08:54:05;;;;;;;10.33;7.37;;;13.60;99.90;;;;;;5060871;28;20776;-71
2022/04/23 08:56:30;;;;;;;12.27;7.90;;;13.50;99.90;;;;;;5060230;28;20576;-75
2022/04/23 08:58:56;;;;;;;9.10;8.20;;;13.60;99.90;;;;;;5059655;28;20957;-72
2022/04/23 09:01:22;;;;;;;9.97;7.63;;;13.80;99.90;;;;;;5060960;28;20193;-72
2022/04/23 09:03:48;;;;;;;8.43;7.20;;;13.80;99.90;;;;;;5061506;28;20426;-69
2022/04/23 09:06:15;;;;;;;11.40;7.60;;;13.80;99.90;;;;;;5066734;28;20178;-72
2022/04/23 09:09:07;;;;;;;10.17;7.60;;;13.70;99.90;;;;;;5059967;28;20494;-72
2022/04/23 09:11:37;;;;;;;11.60;7.97;;;13.70;99.90;;;;;;5059449;28;20947;-72
2022/04/23 09:14:04;;;;;;;9.30;7.23;;;13.60;99.90;;;;;;5061829;28;20419;-73
2022/04/23 09:25:02;;;;;;;10.30;7.47;;;13.50;99.90;;;;;;5062471;28;20445;-72
2022/04/23 09:27:31;;;;;;;7.97;6.57;;;13.30;99.90;;;;;;5061665;28;20443;-72
2022/04/23 09:29:58;;;;;;;10.87;7.80;;;13.40;99.90;;;;;;5060903;28;20227;-72
2022/04/23 09:32:24;;;;;;;8.20;7.40;;;13.30;99.90;;;;;;5060399;28;20486;-72
2022/04/23 09:35:06;;;;;;;11.20;6.90;;;13.30;99.90;;;;;;5060034;28;20451;-72
2022/04/23 09:40:21;;;;;;;8.40;7.30;;;13.50;99.90;;;;;;5061111;28;20462;-72
2022/04/23 09:42:59;;;;;;;9.87;7.57;;;13.60;99.90;;;;;;5063018;28;20446;-72
2022/04/23 09:45:27;;;;;;;7.53;6.40;;;13.40;99.90;;;;;;5070823;28;20418;-71
2022/04/23 09:47:53;;;;;;;8.90;6.70;;;13.40;99.90;;;;;;5071579;28;20511;-73
2022/04/23 09:50:19;;;;;;;8.63;7.17;;;13.50;99.90;;;;;;5069656;28;20466;-72
2022/04/23 09:52:45;;;;;;;8.00;6.30;;;13.40;99.90;;;;;;5068471;28;20534;-71
2022/04/23 09:55:12;;;;;;;7.63;5.93;;;13.20;99.90;;;;;;5069206;28;20210;-71
2022/04/23 09:57:38;;;;;;;9.87;7.23;;;13.10;99.90;;;;;;5069076;28;20411;-69
2022/04/23 10:00:05;;;;;;;6.83;5.97;;;13.10;99.90;;;;;;5069519;28;20420;-72
2022/04/23 10:02:32;;;;;;;6.70;5.97;;;13.20;99.90;;;;;;5070034;28;20500;-72
2022/04/23 10:05:01;;;;;;;7.87;5.80;;;13.30;99.90;;;;;;5071078;28;20415;-72
2022/04/23 10:07:28;;;;;;;7.10;5.80;;;13.30;99.90;;;;;;5070793;28;20430;-72
2022/04/23 10:09:57;;;;;;;6.77;6.03;;;13.40;99.90;;;;;;5071326;28;20492;-73
2022/04/23 10:12:25;;;;;;;7.90;6.33;;;13.70;99.90;;;;;;5072736;28;20453;-72
2022/04/23 10:14:56;;;;;;;7.20;5.80;;;13.70;99.90;;;;;;5074848;28;21021;-72
2022/04/23 10:17:24;;;;;;;6.93;5.90;;;13.80;99.90;;;;;;5074653;28;20403;-72
2022/04/23 10:19:50;;;;;;;6.37;5.70;;;13.80;99.90;;;;;;5074613;28;20411;-72
2022/04/23 10:22:28;;;;;;;6.13;5.50;;;13.70;99.90;;;;;;5074026;28;21037;-72
2022/04/23 10:25:22;;;;;;;5.70;4.90;;;13.70;99.90;;;;;;5074806;28;20260;-71
2022/04/23 10:27:48;;;;;;;6.37;5.73;;;13.80;99.90;;;;;;5074625;28;20422;-71
2022/04/23 10:30:15;;;;;;;7.33;6.07;;;13.80;99.90;;;;;;5074036;28;20463;-72
2022/04/23 10:32:41;;;;;;;6.67;5.97;;;13.90;99.90;;;;;;5072549;28;20623;-72
2022/04/23 10:35:30;;;;;;;9.20;5.67;;;13.90;99.90;;;;;;5073822;28;20431;-73
2022/04/23 10:37:56;;;;;;;4.60;4.20;;;13.90;99.90;;;;;;5040994;28;20925;-72
2022/04/23 10:40:22;;;;;;;7.97;5.97;;;14.10;99.90;;;;;;5053984;28;20419;-72
2022/04/23 10:43:08;;;;;;;5.23;4.73;;;14.20;99.90;;;;;;5054388;28;20443;-72
2022/04/23 10:45:36;;;;;;;6.83;6.13;;;14.30;99.90;;;;;;5074003;28;20229;-72
2022/04/23 10:48:21;;;;;;;5.73;5.20;;;14.40;99.90;;;;;;5073768;28;20668;-72
2022/04/23 10:51:03;;;;;;;6.57;5.93;;;14.40;99.90;;;;;;5073673;28;20527;-72
2022/04/23 10:53:51;;;;;;;6.50;5.90;;;14.50;99.90;;;;;;5073481;28;20440;-72
2022/04/23 10:56:19;;;;;;;8.33;6.70;;;14.60;99.90;;;;;;5073603;28;20425;-72
2022/04/23 10:58:44;;;;;;;6.13;5.50;;;14.70;99.90;;;;;;5074013;28;20779;-72
2022/04/23 11:01:21;;;;;;;7.43;6.17;;;14.80;99.90;;;;;;5073314;28;20518;-68
2022/04/23 11:04:05;;;;;;;7.60;6.20;;;14.70;99.90;;;;;;5073144;28;20434;-71
2022/04/23 11:12:34;;;;;;;8.43;6.30;;;14.60;99.90;;;;;;5072520;28;20434;-71
2022/04/23 11:15:01;;;;;;;7.80;6.60;;;14.40;99.90;;;;;;5071298;28;20958;-73
2022/04/23 11:17:36;;;;;;;6.97;6.27;;;14.50;99.90;;;;;;5071687;28;20442;-71
2022/04/23 11:20:02;;;;;;;6.80;5.80;;;14.40;99.90;;;;;;5072897;28;20411;-72
2022/04/23 11:22:28;;;;;;;8.33;6.60;;;14.20;99.90;;;;;;5071282;28;20862;-72
2022/04/23 11:24:57;;;;;;;9.20;6.47;;;14.10;99.90;;;;;;5072704;28;20499;-71
2022/04/23 11:27:36;;;;;;;8.30;7.13;;;14.10;99.90;;;;;;5072586;28;20177;-71
2022/04/23 11:30:03;;;;;;;7.73;6.90;;;14.30;99.90;;;;;;5073386;28;20462;-71
2022/04/23 11:32:31;;;;;;;7.63;6.63;;;14.40;99.90;;;;;;5072336;28;20470;-71
2022/04/23 11:34:58;;;;;;;8.83;7.47;;;14.30;99.90;;;;;;5073058;28;20411;-72
2022/04/23 11:37:35;;;;;;;8.10;6.33;;;14.30;99.90;;;;;;5072594;28;20785;-72
2022/04/23 11:40:10;;;;;;;8.37;6.20;;;14.40;99.90;;;;;;5072993;28;21000;-71
2022/04/23 11:42:46;;;;;;;8.10;7.20;;;14.40;99.90;;;;;;5069577;28;20453;-72
2022/04/23 11:45:14;;;;;;;8.53;7.63;;;14.50;99.90;;;;;;5071373;28;20513;-72
2022/04/23 11:47:39;;;;;;;8.80;7.80;;;14.60;99.90;;;;;;5072560;28;20448;-71
2022/04/23 11:50:22;;;;;;;9.00;7.23;;;14.40;99.90;;;;;;5072774;28;20467;-71
2022/04/23 11:52:59;;;;;;;8.77;7.80;;;14.50;99.90;;;;;;5072398;28;20229;-70
2022/04/23 11:55:26;;;;;;;8.80;7.70;;;14.70;99.90;;;;;;5071336;28;20433;-71
2022/04/23 11:57:56;;;;;;;10.77;8.00;;;14.90;99.90;;;;;;5072539;28;20411;-72
2022/04/23 12:00:22;;;;;;;8.70;7.80;;;14.90;99.90;;;;;;5061436;28;20432;-72
2022/04/23 12:02:48;;;;;;;8.90;8.00;;;14.90;99.90;;;;;;5062148;28;20455;-72
2022/04/23 12:05:22;;;;;;;8.93;7.83;;;14.90;99.90;;;;;;5056313;28;20424;-72
2022/04/23 12:07:47;;;;;;;9.47;7.20;;;15.10;99.90;;;;;;5052068;28;20503;-71
2022/04/23 12:10:13;;;;;;;10.40;7.60;;;15.00;99.90;;;;;;5052070;28;21038;-71
2022/04/23 12:12:38;;;;;;;7.73;6.93;;;15.00;99.90;;;;;;5064333;28;20197;-72
2022/04/23 12:15:09;;;;;;;10.70;8.40;;;15.00;99.90;;;;;;5072273;28;20180;-71
2022/04/23 12:17:49;;;;;;;8.37;6.80;;;15.00;99.90;;;;;;5071792;28;20215;-71
2022/04/23 12:20:17;;;;;;;8.53;7.53;;;15.20;99.90;;;;;;5072076;28;20501;-71
2022/04/23 12:23:08;;;;;;;10.53;7.27;;;15.20;99.90;;;;;;5071801;28;22323;-71
2022/04/23 12:25:34;;;;;;;8.90;7.10;;;15.40;99.90;;;;;;5071934;28;20422;-71
2022/04/23 12:42:12;;;;;;;9.33;7.67;;;15.90;99.90;;;;;;5070576;28;20442;-71
2022/04/23 12:44:42;;;;;;;8.77;7.60;;;15.60;99.90;;;;;;5071864;28;20537;-72
2022/04/23 12:47:30;;;;;;;7.87;6.90;;;15.40;99.90;;;;;;5071539;28;20418;-71
2022/04/23 12:50:02;;;;;;;7.43;6.73;;;15.40;99.90;;;;;;5071425;28;20462;-72
2022/04/23 12:52:41;;;;;;;8.33;7.53;;;15.40;99.90;;;;;;5071152;28;21022;-71
2022/04/23 12:55:18;;;;;;;6.70;5.97;;;15.30;99.90;;;;;;5071866;28;20505;-71
2022/04/23 12:57:54;;;;;;;7.30;6.60;;;15.30;99.90;;;;;;5071423;28;20407;-71
2022/04/23 13:00:22;;;;;;;7.70;6.73;;;15.30;99.90;;;;;;5070902;28;20438;-71
2022/04/23 13:02:53;;;;;;;7.37;6.63;;;15.30;99.90;;;;;;5071615;28;20958;-72
2022/04/23 13:05:18;;;;;;;11.20;7.90;;;15.20;99.90;;;;;;5071228;28;20423;-72
2022/04/23 13:10:28;;;;;;;8.40;7.57;;;15.30;99.90;;;;;;5070574;28;20714;-69
2022/04/23 13:12:54;;;;;;;8.00;7.03;;;15.30;99.90;;;;;;5071437;28;20454;-72
2022/04/23 13:15:20;;;;;;;8.47;7.37;;;15.30;99.90;;;;;;5071209;28;20562;-72
2022/04/23 13:17:46;;;;;;;8.07;7.33;;;15.40;99.90;;;;;;5071328;28;20249;-72
2022/04/23 13:20:14;;;;;;;12.43;7.23;;;15.50;99.90;;;;;;5071028;28;20173;-72
2022/04/23 13:22:43;;;;;;;9.90;7.90;;;15.50;99.90;;;;;;5071303;28;20443;-72
2022/04/23 13:25:11;;;;;;;9.73;6.57;;;15.40;99.90;;;;;;5071368;28;20411;-72
2022/04/23 13:27:36;;;;;;;7.97;7.20;;;15.30;99.90;;;;;;5071014;28;20507;-72
2022/04/23 13:30:04;;;;;;;8.53;7.83;;;15.20;99.90;;;;;;5070450;28;20916;-72
2022/04/23 13:32:31;;;;;;;10.93;8.03;;;15.20;99.90;;;;;;5070420;28;20212;-71
2022/04/23 13:34:56;;;;;;;10.90;8.30;;;15.10;99.90;;;;;;5071226;28;20413;-72
2022/04/23 13:37:22;;;;;;;9.20;8.00;;;15.00;99.90;;;;;;5071373;28;20486;-72
2022/04/23 13:39:47;;;;;;;9.17;8.23;;;15.10;99.90;;;;;;5070828;28;20173;-71
2022/04/23 13:42:13;;;;;;;11.33;8.10;;;15.10;99.90;;;;;;5070587;28;20200;-72
2022/04/23 13:44:40;;;;;;;9.40;8.50;;;15.20;99.90;;;;;;5071103;28;20233;-71
2022/04/23 13:47:06;;;;;;;13.63;9.23;;;15.20;99.90;;;;;;5075074;28;20411;-72
2022/04/23 13:49:32;;;;;;;11.10;8.80;;;15.20;99.90;;;;;;5074744;28;20803;-72
2022/04/23 13:51:57;;;;;;;10.23;8.87;;;15.20;99.90;;;;;;5074558;28;20279;-73
2022/04/23 13:54:23;;;;;;;13.03;9.00;;;15.30;99.90;;;;;;5074898;28;20196;-71
2022/04/23 13:56:49;;;;;;;10.50;9.33;;;15.40;99.90;;;;;;5074912;28;20207;-69
2022/04/23 13:59:15;;;;;;;11.13;9.47;;;15.20;99.90;;;;;;5074723;28;20169;-71
2022/04/23 14:01:41;;;;;;;13.47;9.73;;;15.10;99.90;;;;;;5074515;28;20488;-72
2022/04/23 14:12:19;;;;;;;10.80;9.70;;;15.30;99.90;;;;;;5073446;28;20799;-71
2022/04/23 14:14:45;;;;;;;14.00;10.10;;;15.30;99.90;;;;;;5074898;28;20399;-73
2022/04/23 14:17:10;;;;;;;10.87;9.77;;;15.30;99.90;;;;;;5074656;28;20279;-72
2022/04/23 14:19:36;;;;;;;11.03;9.90;;;15.30;99.90;;;;;;5071255;28;20268;-72
2022/04/23 14:22:03;;;;;;;12.93;10.83;;;15.40;99.90;;;;;;5065293;28;20661;-72
2022/04/23 14:24:29;;;;;;;15.90;12.03;;;15.50;99.90;;;;;;5062197;28;20191;-71
2022/04/23 14:26:54;;;;;;;14.80;10.57;;;15.40;99.90;;;;;;5062905;28;20765;-71
2022/04/23 14:29:20;;;;;;;11.47;10.33;;;15.40;99.90;;;;;;5062012;28;20458;-73
2022/04/23 14:31:45;;;;;;;11.80;10.32;;;15.40;99.90;;;;;;5066516;28;20436;-71
2022/04/23 14:34:12;;;;;;;12.57;9.90;;;15.30;99.90;;;;;;5061821;28;20675;-71
2022/04/23 14:36:38;;;;;;;11.13;10.00;;;15.30;99.90;;;;;;5053993;28;20676;-71
2022/04/23 14:39:05;;;;;;;15.90;11.30;;;15.30;99.90;;;;;;5054427;28;20416;-71
2022/04/23 14:41:31;;;;;;;11.97;10.77;;;15.10;99.90;;;;;;5067478;28;20216;-72
2022/04/23 14:43:56;;;;;;;11.43;10.27;;;15.10;99.90;;;;;;5074292;28;20440;-72
2022/04/23 14:46:22;;;;;;;12.17;10.87;;;15.10;99.90;;;;;;5073881;28;20172;-72
2022/04/23 14:48:48;;;;;;;12.33;11.03;;;15.00;99.90;;;;;;5073923;28;20677;-72
2022/04/23 14:53:57;;;;;;;14.27;11.33;;;15.00;99.90;;;;;;5074254;28;20179;-74
2022/04/23 14:56:23;;;;;;;12.33;11.00;;;15.00;99.90;;;;;;5073697;28;20488;-72
2022/04/23 14:58:48;;;;;;;12.20;11.00;;;15.00;99.90;;;;;;5073526;28;20165;-72
2022/04/23 15:01:14;;;;;;;13.47;12.07;;;15.10;99.90;;;;;;5073152;28;20200;-73
2022/04/23 15:03:43;;;;;;;12.90;11.63;;;15.10;99.90;;;;;;5073044;28;20585;-71
2022/04/23 15:06:09;;;;;;;13.93;11.77;;;15.20;99.90;;;;;;5073728;28;20761;-71